sensor_id;sensor_type;location;lat;lon;timestamp;temperature;humidity
61253;DHT22;47127;47.516;8.596;2023-04-15T00:00:19;6.20;99.90
61253;DHT22;47127;47.516;8.596;2023-04-15T00:02:45;6.30;99.90
61253;DHT22;47127;47.516;8.596;2023-04-15T00:05:11;6.30;99.90
61253;DHT22;47127;47.516;8.596;2023-04-15T00:07:36;6.20;99.90
61253;DHT22;47127;47.516;8.596;2023-04-15T00:10:03;6.20;99.90
61253;DHT22;47127;47.516;8.596;2023-04-15T00:12:29;6.10;99.90
61253;DHT22;47127;47.516;8.596;2023-04-15T00:14:55;6.10;99.90
61253;DHT22;47127;47.516;8.596;2023-04-15T00:17:21;6.20;99.90
61253;DHT22;47127;47.516;8.596;2023-04-15T00:19:47;6.00;99.90
61253;DHT22;47127;47.516;8.596;2023-04-15T00:22:12;6.00;99.90
61253;DHT22;47127;47.516;8.596;2023-04-15T00:24:38;5.90;99.90
61253;DHT22;47127;47.516;8.596;2023-04-15T00:27:04;6.00;99.90
61253;DHT22;47127;47.516;8.596;2023-04-15T00:29:30;6.00;99.90
61253;DHT22;47127;47.516;8.596;2023-04-15T00:31:56;6.00;99.90
61253;DHT22;47127;47.516;8.596;2023-04-15T00:34:22;6.10;99.90
61253;DHT22;47127;47.516;8.596;2023-04-15T00:36:48;6.20;99.90
61253;DHT22;47127;47.516;8.596;2023-04-15T00:39:14;6.20;99.90
61253;DHT22;47127;47.516;8.596;2023-04-15T00:41:41;6.20;99.90
61253;DHT22;47127;47.516;8.596;2023-04-15T00:44:07;6.30;99.90
61253;DHT22;47127;47.516;8.596;2023-04-15T00:46:35;6.30;99.90
61253;DHT22;47127;47.516;8.596;2023-04-15T00:49:03;6.20;99.90
61253;DHT22;47127;47.516;8.596;2023-04-15T00:51:29;6.30;99.90
61253;DHT22;47127;47.516;8.596;2023-04-15T00:54:03;6.30;99.90
61253;DHT22;47127;47.516;8.596;2023-04-15T00:56:34;6.10;99.90
61253;DHT22;47127;47.516;8.596;2023-04-15T00:59:00;5.80;99.90
61253;DHT22;47127;47.516;8.596;2023-04-15T01:01:27;5.70;99.90
61253;DHT22;47127;47.516;8.596;2023-04-15T01:03:55;5.70;99.90
61253;DHT22;47127;47.516;8.596;2023-04-15T01:06:21;5.80;99.90
61253;DHT22;47127;47.516;8.596;2023-04-15T01:08:46;5.80;99.90
61253;DHT22;47127;47.516;8.596;2023-04-15T01:11:12;5.80;99.90
61253;DHT22;47127;47.516;8.596;2023-04-15T01:13:38;5.80;99.90
61253;DHT22;47127;47.516;8.596;2023-04-15T01:16:04;5.80;99.90
61253;DHT22;47127;47.516;8.596;2023-04-15T01:18:29;5.80;99.90
61253;DHT22;47127;47.516;8.596;2023-04-15T01:20:55;5.80;99.90
61253;DHT22;47127;47.516;8.596;2023-04-15T01:23:23;5.90;99.90
61253;DHT22;47127;47.516;8.596;2023-04-15T01:25:49;5.90;99.90
61253;DHT22;47127;47.516;8.596;2023-04-15T01:28:15;5.90;99.90
61253;DHT22;47127;47.516;8.596;2023-04-15T01:30:41;5.90;99.90
61253;DHT22;47127;47.516;8.596;2023-04-15T01:33:07;5.70;99.90
61253;DHT22;47127;47.516;8.596;2023-04-15T01:35:33;5.50;99.90
61253;DHT22;47127;47.516;8.596;2023-04-15T01:38:07;5.60;99.90
61253;DHT22;47127;47.516;8.596;2023-04-15T01:40:33;5.70;99.90
61253;DHT22;47127;47.516;8.596;2023-04-15T01:43:00;5.90;99.90
61253;DHT22;47127;47.516;8.596;2023-04-15T01:45:25;5.90;99.90
61253;DHT22;47127;47.516;8.596;2023-04-15T01:47:51;5.80;99.90
61253;DHT22;47127;47.516;8.596;2023-04-15T01:50:17;5.80;99.90
61253;DHT22;47127;47.516;8.596;2023-04-15T01:52:43;5.90;99.90
61253;DHT22;47127;47.516;8.596;2023-04-15T01:55:10;6.70;99.90
61253;DHT22;47127;47.516;8.596;2023-04-15T01:57:42;6.10;99.90
61253;DHT22;47127;47.516;8.596;2023-04-15T02:00:08;6.10;99.90
61253;DHT22;47127;47.516;8.596;2023-04-15T02:02:34;6.20;99.90
61253;DHT22;47127;47.516;8.596;2023-04-15T02:05:00;6.30;99.90
61253;DHT22;47127;47.516;8.596;2023-04-15T02:07:26;6.30;99.90
61253;DHT22;47127;47.516;8.596;2023-04-15T02:09:53;6.30;99.90
61253;DHT22;47127;47.516;8.596;2023-04-15T02:12:18;6.30;99.90
61253;DHT22;47127;47.516;8.596;2023-04-15T02:14:44;6.20;99.90
61253;DHT22;47127;47.516;8.596;2023-04-15T02:17:10;6.10;99.90
61253;DHT22;47127;47.516;8.596;2023-04-15T02:19:36;6.00;99.90
61253;DHT22;47127;47.516;8.596;2023-04-15T02:22:02;6.00;99.90
61253;DHT22;47127;47.516;8.596;2023-04-15T02:24:28;6.40;99.90
61253;DHT22;47127;47.516;8.596;2023-04-15T02:26:54;5.90;99.90
61253;DHT22;47127;47.516;8.596;2023-04-15T02:29:20;5.90;99.90
61253;DHT22;47127;47.516;8.596;2023-04-15T02:31:47;5.90;99.90
61253;DHT22;47127;47.516;8.596;2023-04-15T02:34:13;6.00;99.90
61253;DHT22;47127;47.516;8.596;2023-04-15T02:36:38;6.10;99.90
61253;DHT22;47127;47.516;8.596;2023-04-15T02:39:05;6.10;99.90
61253;DHT22;47127;47.516;8.596;2023-04-15T02:41:30;6.10;99.90
61253;DHT22;47127;47.516;8.596;2023-04-15T02:43:56;6.10;99.90
61253;DHT22;47127;47.516;8.596;2023-04-15T02:46:22;6.20;99.90
61253;DHT22;47127;47.516;8.596;2023-04-15T02:48:48;6.10;99.90
61253;DHT22;47127;47.516;8.596;2023-04-15T02:51:20;6.10;99.90
61253;DHT22;47127;47.516;8.596;2023-04-15T02:53:50;6.10;99.90
61253;DHT22;47127;47.516;8.596;2023-04-15T02:56:22;6.10;99.90
61253;DHT22;47127;47.516;8.596;2023-04-15T02:58:48;6.20;99.90
61253;DHT22;47127;47.516;8.596;2023-04-15T03:01:15;6.20;99.90
61253;DHT22;47127;47.516;8.596;2023-04-15T03:03:42;6.10;99.90
61253;DHT22;47127;47.516;8.596;2023-04-15T03:06:09;6.20;99.90
61253;DHT22;47127;47.516;8.596;2023-04-15T03:08:35;6.20;99.90
61253;DHT22;47127;47.516;8.596;2023-04-15T03:11:00;6.20;99.90
61253;DHT22;47127;47.516;8.596;2023-04-15T03:13:27;6.10;99.90
61253;DHT22;47127;47.516;8.596;2023-04-15T03:15:52;6.00;99.90
61253;DHT22;47127;47.516;8.596;2023-04-15T03:18:18;6.10;99.90
61253;DHT22;47127;47.516;8.596;2023-04-15T03:20:43;6.00;99.90
61253;DHT22;47127;47.516;8.596;2023-04-15T03:23:09;6.10;99.90
61253;DHT22;47127;47.516;8.596;2023-04-15T03:25:34;6.10;99.90
61253;DHT22;47127;47.516;8.596;2023-04-15T03:28:02;6.10;99.90
61253;DHT22;47127;47.516;8.596;2023-04-15T03:30:27;6.20;99.90
61253;DHT22;47127;47.516;8.596;2023-04-15T03:32:54;6.30;99.90
61253;DHT22;47127;47.516;8.596;2023-04-15T03:35:20;6.40;99.90
61253;DHT22;47127;47.516;8.596;2023-04-15T03:37:45;6.40;99.90
61253;DHT22;47127;47.516;8.596;2023-04-15T03:40:13;6.40;99.90
61253;DHT22;47127;47.516;8.596;2023-04-15T03:42:38;6.40;99.90
61253;DHT22;47127;47.516;8.596;2023-04-15T03:45:05;6.50;99.90
61253;DHT22;47127;47.516;8.596;2023-04-15T03:47:31;5.90;99.90
61253;DHT22;47127;47.516;8.596;2023-04-15T03:49:57;6.60;99.90
61253;DHT22;47127;47.516;8.596;2023-04-15T03:52:23;6.60;99.90
61253;DHT22;47127;47.516;8.596;2023-04-15T03:54:48;6.60;99.90
61253;DHT22;47127;47.516;8.596;2023-04-15T03:57:14;6.50;99.90
61253;DHT22;47127;47.516;8.596;2023-04-15T03:59:46;6.40;99.90
61253;DHT22;47127;47.516;8.596;2023-04-15T04:02:12;6.40;99.90
61253;DHT22;47127;47.516;8.596;2023-04-15T04:04:37;6.40;99.90
61253;DHT22;47127;47.516;8.596;2023-04-15T04:07:05;6.40;99.90
61253;DHT22;47127;47.516;8.596;2023-04-15T04:09:30;6.30;99.90
61253;DHT22;47127;47.516;8.596;2023-04-15T04:11:56;6.20;99.90
61253;DHT22;47127;47.516;8.596;2023-04-15T04:14:22;6.20;99.90
61253;DHT22;47127;47.516;8.596;2023-04-15T04:16:53;6.10;99.90
61253;DHT22;47127;47.516;8.596;2023-04-15T04:19:19;6.00;99.90
61253;DHT22;47127;47.516;8.596;2023-04-15T04:21:45;6.00;99.90
61253;DHT22;47127;47.516;8.596;2023-04-15T04:24:12;6.00;99.90
61253;DHT22;47127;47.516;8.596;2023-04-15T04:26:38;6.00;99.90
61253;DHT22;47127;47.516;8.596;2023-04-15T04:29:03;6.10;99.90
61253;DHT22;47127;47.516;8.596;2023-04-15T04:31:29;7.10;99.90
61253;DHT22;47127;47.516;8.596;2023-04-15T04:33:54;5.90;99.90
61253;DHT22;47127;47.516;8.596;2023-04-15T04:39:58;5.90;99.90
61253;DHT22;47127;47.516;8.596;2023-04-15T04:42:24;6.00;99.90
61253;DHT22;47127;47.516;8.596;2023-04-15T04:44:49;6.00;99.90
61253;DHT22;47127;47.516;8.596;2023-04-15T04:47:15;6.00;99.90
61253;DHT22;47127;47.516;8.596;2023-04-15T04:49:41;6.00;99.90
61253;DHT22;47127;47.516;8.596;2023-04-15T04:52:08;6.10;99.90
61253;DHT22;47127;47.516;8.596;2023-04-15T04:54:34;6.10;99.90
61253;DHT22;47127;47.516;8.596;2023-04-15T04:57:00;6.10;99.90
61253;DHT22;47127;47.516;8.596;2023-04-15T04:59:32;6.10;99.90
61253;DHT22;47127;47.516;8.596;2023-04-15T05:01:58;5.60;99.90
61253;DHT22;47127;47.516;8.596;2023-04-15T05:04:24;6.20;99.90
61253;DHT22;47127;47.516;8.596;2023-04-15T05:06:50;6.20;99.90
61253;DHT22;47127;47.516;8.596;2023-04-15T05:09:16;6.90;99.90
61253;DHT22;47127;47.516;8.596;2023-04-15T05:11:42;6.30;99.90
61253;DHT22;47127;47.516;8.596;2023-04-15T05:14:07;5.30;99.90
61253;DHT22;47127;47.516;8.596;2023-04-15T05:16:33;6.20;99.90
61253;DHT22;47127;47.516;8.596;2023-04-15T05:19:00;6.30;99.90
61253;DHT22;47127;47.516;8.596;2023-04-15T05:21:26;6.40;99.90
61253;DHT22;47127;47.516;8.596;2023-04-15T05:23:52;9.40;99.90
61253;DHT22;47127;47.516;8.596;2023-04-15T05:26:18;6.40;99.90
61253;DHT22;47127;47.516;8.596;2023-04-15T05:28:45;6.40;99.90
61253;DHT22;47127;47.516;8.596;2023-04-15T05:31:10;6.40;99.90
61253;DHT22;47127;47.516;8.596;2023-04-15T05:33:36;6.40;99.90
61253;DHT22;47127;47.516;8.596;2023-04-15T05:36:34;6.40;99.90
61253;DHT22;47127;47.516;8.596;2023-04-15T05:39:06;5.30;99.90
61253;DHT22;47127;47.516;8.596;2023-04-15T05:41:32;6.50;99.90
61253;DHT22;47127;47.516;8.596;2023-04-15T05:43:58;6.60;99.90
61253;DHT22;47127;47.516;8.596;2023-04-15T05:46:24;6.70;99.90
61253;DHT22;47127;47.516;8.596;2023-04-15T05:48:50;6.70;99.90
61253;DHT22;47127;47.516;8.596;2023-04-15T05:51:15;6.60;99.90
61253;DHT22;47127;47.516;8.596;2023-04-15T05:53:42;6.70;99.90
61253;DHT22;47127;47.516;8.596;2023-04-15T05:56:14;6.80;99.90
61253;DHT22;47127;47.516;8.596;2023-04-15T05:58:40;6.80;99.90
61253;DHT22;47127;47.516;8.596;2023-04-15T06:01:12;6.90;99.90
61253;DHT22;47127;47.516;8.596;2023-04-15T06:03:38;6.90;99.90
61253;DHT22;47127;47.516;8.596;2023-04-15T06:06:04;6.90;99.90
61253;DHT22;47127;47.516;8.596;2023-04-15T06:08:29;7.00;99.90
61253;DHT22;47127;47.516;8.596;2023-04-15T06:10:55;7.00;99.90
61253;DHT22;47127;47.516;8.596;2023-04-15T06:13:22;6.90;99.90
61253;DHT22;47127;47.516;8.596;2023-04-15T06:15:48;7.00;99.90
61253;DHT22;47127;47.516;8.596;2023-04-15T06:18:14;7.10;99.90
61253;DHT22;47127;47.516;8.596;2023-04-15T06:20:39;7.10;99.90
61253;DHT22;47127;47.516;8.596;2023-04-15T06:23:06;7.20;99.90
61253;DHT22;47127;47.516;8.596;2023-04-15T06:25:31;7.20;99.90
61253;DHT22;47127;47.516;8.596;2023-04-15T06:27:58;7.20;99.90
61253;DHT22;47127;47.516;8.596;2023-04-15T06:30:24;7.20;99.90
61253;DHT22;47127;47.516;8.596;2023-04-15T06:32:49;7.30;99.90
61253;DHT22;47127;47.516;8.596;2023-04-15T06:35:15;7.40;99.90
61253;DHT22;47127;47.516;8.596;2023-04-15T06:37:40;7.50;99.90
61253;DHT22;47127;47.516;8.596;2023-04-15T06:40:06;7.50;99.90
61253;DHT22;47127;47.516;8.596;2023-04-15T06:42:34;7.60;99.90
61253;DHT22;47127;47.516;8.596;2023-04-15T06:45:01;7.60;99.90
61253;DHT22;47127;47.516;8.596;2023-04-15T06:47:26;7.70;99.90
61253;DHT22;47127;47.516;8.596;2023-04-15T06:49:52;7.80;99.90
61253;DHT22;47127;47.516;8.596;2023-04-15T06:52:18;7.80;99.90
61253;DHT22;47127;47.516;8.596;2023-04-15T06:54:43;7.80;99.90
61253;DHT22;47127;47.516;8.596;2023-04-15T06:57:15;7.90;99.90
61253;DHT22;47127;47.516;8.596;2023-04-15T06:59:40;8.10;99.90
61253;DHT22;47127;47.516;8.596;2023-04-15T07:02:08;8.10;99.90
61253;DHT22;47127;47.516;8.596;2023-04-15T07:04:36;8.10;99.90
61253;DHT22;47127;47.516;8.596;2023-04-15T07:07:02;8.20;99.90
61253;DHT22;47127;47.516;8.596;2023-04-15T07:09:28;8.20;99.90
61253;DHT22;47127;47.516;8.596;2023-04-15T07:11:54;8.30;99.90
61253;DHT22;47127;47.516;8.596;2023-04-15T07:14:19;8.30;99.90
61253;DHT22;47127;47.516;8.596;2023-04-15T07:16:45;8.40;99.90
61253;DHT22;47127;47.516;8.596;2023-04-15T07:19:11;8.50;99.90
61253;DHT22;47127;47.516;8.596;2023-04-15T07:21:38;8.60;99.90
61253;DHT22;47127;47.516;8.596;2023-04-15T07:24:04;8.50;99.90
61253;DHT22;47127;47.516;8.596;2023-04-15T07:26:30;8.50;99.90
61253;DHT22;47127;47.516;8.596;2023-04-15T07:28:55;8.70;99.90
61253;DHT22;47127;47.516;8.596;2023-04-15T07:31:21;8.70;99.90
61253;DHT22;47127;47.516;8.596;2023-04-15T07:33:46;8.90;99.90
61253;DHT22;47127;47.516;8.596;2023-04-15T07:36:12;9.00;99.90
61253;DHT22;47127;47.516;8.596;2023-04-15T07:38:38;9.00;99.90
61253;DHT22;47127;47.516;8.596;2023-04-15T07:41:04;9.20;99.90
61253;DHT22;47127;47.516;8.596;2023-04-15T07:43:29;9.30;99.90
61253;DHT22;47127;47.516;8.596;2023-04-15T07:45:56;9.50;99.90
61253;DHT22;47127;47.516;8.596;2023-04-15T07:48:21;9.50;99.90
61253;DHT22;47127;47.516;8.596;2023-04-15T07:50:47;9.70;99.90
61253;DHT22;47127;47.516;8.596;2023-04-15T07:53:13;9.70;99.90
61253;DHT22;47127;47.516;8.596;2023-04-15T07:55:38;9.80;99.90
61253;DHT22;47127;47.516;8.596;2023-04-15T07:58:05;9.80;99.90
61253;DHT22;47127;47.516;8.596;2023-04-15T08:00:37;9.90;99.90
61253;DHT22;47127;47.516;8.596;2023-04-15T08:03:03;10.00;99.90
61253;DHT22;47127;47.516;8.596;2023-04-15T08:05:29;10.00;99.90
61253;DHT22;47127;47.516;8.596;2023-04-15T08:07:54;10.10;99.90
61253;DHT22;47127;47.516;8.596;2023-04-15T08:10:20;10.10;99.90
61253;DHT22;47127;47.516;8.596;2023-04-15T08:12:47;10.10;99.90
61253;DHT22;47127;47.516;8.596;2023-04-15T08:15:13;10.20;99.90
61253;DHT22;47127;47.516;8.596;2023-04-15T08:17:39;10.30;99.90
61253;DHT22;47127;47.516;8.596;2023-04-15T08:20:05;10.30;99.90
61253;DHT22;47127;47.516;8.596;2023-04-15T08:22:31;10.30;99.90
61253;DHT22;47127;47.516;8.596;2023-04-15T08:24:56;10.40;99.90
61253;DHT22;47127;47.516;8.596;2023-04-15T08:27:22;10.40;99.90
61253;DHT22;47127;47.516;8.596;2023-04-15T08:29:47;10.50;99.90
61253;DHT22;47127;47.516;8.596;2023-04-15T08:32:13;10.50;99.90
61253;DHT22;47127;47.516;8.596;2023-04-15T08:34:39;10.30;99.90
61253;DHT22;47127;47.516;8.596;2023-04-15T08:37:06;10.10;99.90
61253;DHT22;47127;47.516;8.596;2023-04-15T08:39:31;10.30;99.90
61253;DHT22;47127;47.516;8.596;2023-04-15T08:42:01;10.40;99.90
61253;DHT22;47127;47.516;8.596;2023-04-15T08:44:31;9.90;99.90
61253;DHT22;47127;47.516;8.596;2023-04-15T08:47:00;10.60;99.90
61253;DHT22;47127;47.516;8.596;2023-04-15T08:49:28;10.70;99.90
61253;DHT22;47127;47.516;8.596;2023-04-15T08:51:55;10.70;99.90
61253;DHT22;47127;47.516;8.596;2023-04-15T08:54:22;10.80;99.90
61253;DHT22;47127;47.516;8.596;2023-04-15T08:56:50;10.90;99.90
61253;DHT22;47127;47.516;8.596;2023-04-15T08:59:23;10.90;99.90
61253;DHT22;47127;47.516;8.596;2023-04-15T09:01:49;11.00;99.90
61253;DHT22;47127;47.516;8.596;2023-04-15T09:04:18;11.10;99.90
61253;DHT22;47127;47.516;8.596;2023-04-15T09:06:44;11.20;99.90
61253;DHT22;47127;47.516;8.596;2023-04-15T09:09:11;11.10;99.90
61253;DHT22;47127;47.516;8.596;2023-04-15T09:11:37;11.20;99.90
61253;DHT22;47127;47.516;8.596;2023-04-15T09:14:02;11.20;99.90
61253;DHT22;47127;47.516;8.596;2023-04-15T09:16:28;11.30;99.90
61253;DHT22;47127;47.516;8.596;2023-04-15T09:18:54;11.50;99.90
61253;DHT22;47127;47.516;8.596;2023-04-15T09:21:20;11.50;99.90
61253;DHT22;47127;47.516;8.596;2023-04-15T09:24:00;11.70;99.90
61253;DHT22;47127;47.516;8.596;2023-04-15T09:26:33;11.70;99.90
61253;DHT22;47127;47.516;8.596;2023-04-15T09:29:09;11.70;99.90
61253;DHT22;47127;47.516;8.596;2023-04-15T09:31:39;11.70;99.90
61253;DHT22;47127;47.516;8.596;2023-04-15T09:34:06;11.90;99.90
61253;DHT22;47127;47.516;8.596;2023-04-15T09:39:09;12.20;99.90
61253;DHT22;47127;47.516;8.596;2023-04-15T09:41:35;12.30;99.90
61253;DHT22;47127;47.516;8.596;2023-04-15T09:44:01;12.30;99.90
61253;DHT22;47127;47.516;8.596;2023-04-15T09:46:43;12.30;99.90
61253;DHT22;47127;47.516;8.596;2023-04-15T09:49:10;12.40;99.90
61253;DHT22;47127;47.516;8.596;2023-04-15T09:51:36;12.50;99.90
61253;DHT22;47127;47.516;8.596;2023-04-15T09:54:02;12.40;99.90
61253;DHT22;47127;47.516;8.596;2023-04-15T09:56:34;12.60;99.50
61253;DHT22;47127;47.516;8.596;2023-04-15T09:59:09;12.70;99.30
61253;DHT22;47127;47.516;8.596;2023-04-15T10:01:41;12.60;99.90
61253;DHT22;47127;47.516;8.596;2023-04-15T10:04:08;12.70;99.40
61253;DHT22;47127;47.516;8.596;2023-04-15T10:06:34;12.40;99.70
61253;DHT22;47127;47.516;8.596;2023-04-15T10:09:00;12.60;99.00
61253;DHT22;47127;47.516;8.596;2023-04-15T10:11:28;12.70;98.00
61253;DHT22;47127;47.516;8.596;2023-04-15T10:13:56;12.80;97.80
61253;DHT22;47127;47.516;8.596;2023-04-15T10:16:26;12.80;96.90
61253;DHT22;47127;47.516;8.596;2023-04-15T10:18:55;12.70;96.40
61253;DHT22;47127;47.516;8.596;2023-04-15T10:21:23;12.80;96.20
61253;DHT22;47127;47.516;8.596;2023-04-15T10:23:49;12.70;95.70
61253;DHT22;47127;47.516;8.596;2023-04-15T10:26:16;12.50;95.50
61253;DHT22;47127;47.516;8.596;2023-04-15T10:28:42;12.60;96.20
61253;DHT22;47127;47.516;8.596;2023-04-15T10:31:11;12.60;95.30
61253;DHT22;47127;47.516;8.596;2023-04-15T10:33:37;12.60;94.90
61253;DHT22;47127;47.516;8.596;2023-04-15T10:36:04;12.50;95.30
61253;DHT22;47127;47.516;8.596;2023-04-15T10:38:34;12.60;96.00
61253;DHT22;47127;47.516;8.596;2023-04-15T10:41:15;12.60;95.40
61253;DHT22;47127;47.516;8.596;2023-04-15T10:48:48;12.80;93.80
61253;DHT22;47127;47.516;8.596;2023-04-15T10:51:14;12.90;93.50
61253;DHT22;47127;47.516;8.596;2023-04-15T10:53:41;12.90;93.90
61253;DHT22;47127;47.516;8.596;2023-04-15T10:56:07;12.90;93.30
61253;DHT22;47127;47.516;8.596;2023-04-15T10:58:41;13.10;92.90
61253;DHT22;47127;47.516;8.596;2023-04-15T11:01:13;13.10;93.20
61253;DHT22;47127;47.516;8.596;2023-04-15T11:03:41;12.70;95.20
61253;DHT22;47127;47.516;8.596;2023-04-15T11:06:07;12.50;94.60
61253;DHT22;47127;47.516;8.596;2023-04-15T11:08:58;12.40;94.40
61253;DHT22;47127;47.516;8.596;2023-04-15T11:14:38;12.70;94.70
61253;DHT22;47127;47.516;8.596;2023-04-15T11:17:04;12.90;94.40
61253;DHT22;47127;47.516;8.596;2023-04-15T11:19:38;13.00;93.30
61253;DHT22;47127;47.516;8.596;2023-04-15T11:22:09;13.20;93.30
61253;DHT22;47127;47.516;8.596;2023-04-15T11:24:35;13.40;93.30
61253;DHT22;47127;47.516;8.596;2023-04-15T11:27:01;13.50;92.60
61253;DHT22;47127;47.516;8.596;2023-04-15T11:29:32;13.60;92.00
61253;DHT22;47127;47.516;8.596;2023-04-15T11:32:04;13.90;91.50
61253;DHT22;47127;47.516;8.596;2023-04-15T11:34:31;14.00;91.40
61253;DHT22;47127;47.516;8.596;2023-04-15T11:36:57;14.00;91.10
61253;DHT22;47127;47.516;8.596;2023-04-15T11:39:22;14.10;90.10
61253;DHT22;47127;47.516;8.596;2023-04-15T11:41:49;14.20;87.90
61253;DHT22;47127;47.516;8.596;2023-04-15T11:44:16;14.20;88.90
61253;DHT22;47127;47.516;8.596;2023-04-15T11:46:42;14.20;87.80
61253;DHT22;47127;47.516;8.596;2023-04-15T11:49:07;14.20;88.20
61253;DHT22;47127;47.516;8.596;2023-04-15T11:51:34;14.00;89.50
61253;DHT22;47127;47.516;8.596;2023-04-15T11:53:59;13.80;90.40
61253;DHT22;47127;47.516;8.596;2023-04-15T11:56:25;13.70;89.10
61253;DHT22;47127;47.516;8.596;2023-04-15T11:58:56;13.50;89.50
61253;DHT22;47127;47.516;8.596;2023-04-15T12:01:35;13.70;91.10
61253;DHT22;47127;47.516;8.596;2023-04-15T12:04:12;13.80;88.50
61253;DHT22;47127;47.516;8.596;2023-04-15T12:06:37;14.00;87.80
61253;DHT22;47127;47.516;8.596;2023-04-15T12:09:06;13.90;88.50
61253;DHT22;47127;47.516;8.596;2023-04-15T12:11:37;13.70;92.90
61253;DHT22;47127;47.516;8.596;2023-04-15T12:16:30;13.00;93.50
61253;DHT22;47127;47.516;8.596;2023-04-15T12:18:57;13.20;93.90
61253;DHT22;47127;47.516;8.596;2023-04-15T12:21:26;13.50;93.70
61253;DHT22;47127;47.516;8.596;2023-04-15T12:23:56;13.80;93.50
61253;DHT22;47127;47.516;8.596;2023-04-15T12:26:46;14.00;94.20
61253;DHT22;47127;47.516;8.596;2023-04-15T12:29:14;13.90;94.50
61253;DHT22;47127;47.516;8.596;2023-04-15T12:31:48;13.40;94.50
61253;DHT22;47127;47.516;8.596;2023-04-15T12:34:16;13.40;94.80
61253;DHT22;47127;47.516;8.596;2023-04-15T12:36:42;13.30;94.10
61253;DHT22;47127;47.516;8.596;2023-04-15T12:39:08;12.80;95.30
61253;DHT22;47127;47.516;8.596;2023-04-15T12:41:33;12.30;96.40
61253;DHT22;47127;47.516;8.596;2023-04-15T12:43:59;12.20;96.40
61253;DHT22;47127;47.516;8.596;2023-04-15T12:46:25;12.20;97.80
61253;DHT22;47127;47.516;8.596;2023-04-15T12:48:51;12.00;98.00
61253;DHT22;47127;47.516;8.596;2023-04-15T12:51:17;12.00;99.50
61253;DHT22;47127;47.516;8.596;2023-04-15T12:53:43;12.00;99.70
61253;DHT22;47127;47.516;8.596;2023-04-15T12:56:09;12.20;99.60
61253;DHT22;47127;47.516;8.596;2023-04-15T12:58:34;12.50;99.00
61253;DHT22;47127;47.516;8.596;2023-04-15T13:01:07;12.60;98.10
61253;DHT22;47127;47.516;8.596;2023-04-15T13:03:33;12.50;97.90
61253;DHT22;47127;47.516;8.596;2023-04-15T13:05:59;12.50;98.70
61253;DHT22;47127;47.516;8.596;2023-04-15T13:08:26;12.50;98.80
61253;DHT22;47127;47.516;8.596;2023-04-15T13:10:52;12.20;98.80
61253;DHT22;47127;47.516;8.596;2023-04-15T13:13:18;12.20;99.80
61253;DHT22;47127;47.516;8.596;2023-04-15T13:15:43;12.50;99.90
61253;DHT22;47127;47.516;8.596;2023-04-15T13:18:10;12.60;99.40
61253;DHT22;47127;47.516;8.596;2023-04-15T13:20:36;12.60;99.60
61253;DHT22;47127;47.516;8.596;2023-04-15T13:23:01;12.50;99.70
61253;DHT22;47127;47.516;8.596;2023-04-15T13:25:27;12.40;99.50
61253;DHT22;47127;47.516;8.596;2023-04-15T13:27:52;12.50;99.80
61253;DHT22;47127;47.516;8.596;2023-04-15T13:30:19;12.40;99.90
61253;DHT22;47127;47.516;8.596;2023-04-15T13:32:44;12.20;99.90
61253;DHT22;47127;47.516;8.596;2023-04-15T13:35:10;12.20;99.90
61253;DHT22;47127;47.516;8.596;2023-04-15T13:37:36;12.30;99.90
61253;DHT22;47127;47.516;8.596;2023-04-15T13:40:04;12.50;99.90
61253;DHT22;47127;47.516;8.596;2023-04-15T13:42:31;12.50;99.60
61253;DHT22;47127;47.516;8.596;2023-04-15T13:44:57;12.40;99.70
61253;DHT22;47127;47.516;8.596;2023-04-15T13:47:22;12.20;99.90
61253;DHT22;47127;47.516;8.596;2023-04-15T13:49:48;12.00;99.90
61253;DHT22;47127;47.516;8.596;2023-04-15T13:52:13;11.90;99.70
61253;DHT22;47127;47.516;8.596;2023-04-15T13:54:40;11.60;99.90
61253;DHT22;47127;47.516;8.596;2023-04-15T13:57:06;11.40;99.90
61253;DHT22;47127;47.516;8.596;2023-04-15T13:59:34;11.20;99.90
61253;DHT22;47127;47.516;8.596;2023-04-15T14:02:00;11.20;99.90
61253;DHT22;47127;47.516;8.596;2023-04-15T14:04:32;11.40;99.90
61253;DHT22;47127;47.516;8.596;2023-04-15T14:06:59;11.50;99.70
61253;DHT22;47127;47.516;8.596;2023-04-15T14:09:25;11.50;99.70
61253;DHT22;47127;47.516;8.596;2023-04-15T14:11:50;11.60;99.90
61253;DHT22;47127;47.516;8.596;2023-04-15T14:14:16;11.60;99.90
61253;DHT22;47127;47.516;8.596;2023-04-15T14:16:42;11.50;99.90
61253;DHT22;47127;47.516;8.596;2023-04-15T14:19:07;11.40;99.90
61253;DHT22;47127;47.516;8.596;2023-04-15T14:21:33;11.30;99.90
61253;DHT22;47127;47.516;8.596;2023-04-15T14:24:00;11.00;99.90
61253;DHT22;47127;47.516;8.596;2023-04-15T14:26:25;11.00;99.90
61253;DHT22;47127;47.516;8.596;2023-04-15T14:28:51;10.90;99.90
61253;DHT22;47127;47.516;8.596;2023-04-15T14:31:18;10.90;99.90
61253;DHT22;47127;47.516;8.596;2023-04-15T14:33:44;11.00;99.90
61253;DHT22;47127;47.516;8.596;2023-04-15T14:36:10;11.10;99.90
61253;DHT22;47127;47.516;8.596;2023-04-15T14:38:36;11.00;99.90
61253;DHT22;47127;47.516;8.596;2023-04-15T14:41:06;11.00;99.90
61253;DHT22;47127;47.516;8.596;2023-04-15T14:43:33;11.00;99.90
61253;DHT22;47127;47.516;8.596;2023-04-15T14:45:58;10.80;99.90
61253;DHT22;47127;47.516;8.596;2023-04-15T14:48:24;10.70;99.90
61253;DHT22;47127;47.516;8.596;2023-04-15T14:50:51;10.70;99.90
61253;DHT22;47127;47.516;8.596;2023-04-15T14:53:16;10.50;99.90
61253;DHT22;47127;47.516;8.596;2023-04-15T14:55:42;10.60;99.90
61253;DHT22;47127;47.516;8.596;2023-04-15T14:58:08;10.70;99.90
61253;DHT22;47127;47.516;8.596;2023-04-15T15:00:34;10.70;99.90
61253;DHT22;47127;47.516;8.596;2023-04-15T15:03:08;10.70;99.90
61253;DHT22;47127;47.516;8.596;2023-04-15T15:05:44;10.70;99.90
61253;DHT22;47127;47.516;8.596;2023-04-15T15:08:12;10.70;99.90
61253;DHT22;47127;47.516;8.596;2023-04-15T15:10:38;10.60;99.90
61253;DHT22;47127;47.516;8.596;2023-04-15T15:13:06;10.50;99.90
61253;DHT22;47127;47.516;8.596;2023-04-15T15:15:32;10.50;99.90
61253;DHT22;47127;47.516;8.596;2023-04-15T15:21:36;10.50;99.90
61253;DHT22;47127;47.516;8.596;2023-04-15T15:24:01;10.40;99.90
61253;DHT22;47127;47.516;8.596;2023-04-15T15:26:27;10.30;99.90
61253;DHT22;47127;47.516;8.596;2023-04-15T15:28:54;10.40;99.90
61253;DHT22;47127;47.516;8.596;2023-04-15T15:31:19;10.40;99.90
61253;DHT22;47127;47.516;8.596;2023-04-15T15:33:45;10.50;99.90
61253;DHT22;47127;47.516;8.596;2023-04-15T15:36:11;10.50;99.90
61253;DHT22;47127;47.516;8.596;2023-04-15T15:38:36;10.50;99.90
61253;DHT22;47127;47.516;8.596;2023-04-15T15:41:02;10.50;99.90
61253;DHT22;47127;47.516;8.596;2023-04-15T15:43:28;10.50;99.90
61253;DHT22;47127;47.516;8.596;2023-04-15T15:45:54;10.40;99.90
61253;DHT22;47127;47.516;8.596;2023-04-15T15:48:22;10.50;99.90
61253;DHT22;47127;47.516;8.596;2023-04-15T15:50:51;10.50;99.90
61253;DHT22;47127;47.516;8.596;2023-04-15T15:53:18;10.50;99.90
61253;DHT22;47127;47.516;8.596;2023-04-15T15:55:46;10.60;99.90